sensor_id;sensor_type;location;lat;lon;timestamp;pressure;altitude;pressure_sealevel;temperature;humidity
75298;BME280;63896;45.990;18.688;2023-07-31T00:12:52;100469.38;;;19.24;100.00
75298;BME280;63896;45.990;18.688;2023-07-31T00:15:55;100469.13;;;19.20;100.00
75298;BME280;63896;45.990;18.688;2023-07-31T00:18:57;100469.13;;;19.15;100.00
75298;BME280;63896;45.990;18.688;2023-07-31T00:22:00;100463.75;;;19.10;100.00
75298;BME280;63896;45.990;18.688;2023-07-31T00:25:03;100463.47;;;19.07;100.00
75298;BME280;63896;45.990;18.688;2023-07-31T00:28:09;100458.88;;;19.02;100.00
75298;BME280;63896;45.990;18.688;2023-07-31T00:31:13;100460.75;;;18.96;100.00
75298;BME280;63896;45.990;18.688;2023-07-31T00:34:16;100461.03;;;18.95;100.00
75298;BME280;63896;45.990;18.688;2023-07-31T00:37:19;100467.19;;;18.85;100.00
75298;BME280;63896;45.990;18.688;2023-07-31T00:40:22;100475.53;;;18.79;100.00
75298;BME280;63896;45.990;18.688;2023-07-31T00:43:24;100482.75;;;18.73;100.00
75298;BME280;63896;45.990;18.688;2023-07-31T00:46:27;100488.16;;;18.68;100.00
75298;BME280;63896;45.990;18.688;2023-07-31T00:49:30;100489.47;;;18.61;100.00
75298;BME280;63896;45.990;18.688;2023-07-31T00:52:35;100483.78;;;18.52;100.00
75298;BME280;63896;45.990;18.688;2023-07-31T00:55:39;100485.41;;;18.53;100.00
75298;BME280;63896;45.990;18.688;2023-07-31T00:58:42;100476.00;;;18.55;100.00
75298;BME280;63896;45.990;18.688;2023-07-31T01:01:45;100476.00;;;18.55;100.00
75298;BME280;63896;45.990;18.688;2023-07-31T01:04:48;100475.19;;;18.55;100.00
75298;BME280;63896;45.990;18.688;2023-07-31T01:08:04;100478.16;;;18.53;100.00
75298;BME280;63896;45.990;18.688;2023-07-31T01:11:15;100476.47;;;18.47;100.00
75298;BME280;63896;45.990;18.688;2023-07-31T01:14:19;100482.94;;;18.41;100.00
75298;BME280;63896;45.990;18.688;2023-07-31T01:17:21;100492.00;;;18.35;100.00
75298;BME280;63896;45.990;18.688;2023-07-31T01:20:26;100493.09;;;18.39;100.00
75298;BME280;63896;45.990;18.688;2023-07-31T01:23:42;100498.44;;;18.34;100.00
75298;BME280;63896;45.990;18.688;2023-07-31T01:26:57;100494.13;;;18.28;100.00
75298;BME280;63896;45.990;18.688;2023-07-31T01:30:15;100493.63;;;18.31;100.00
75298;BME280;63896;45.990;18.688;2023-07-31T01:33:19;100491.47;;;18.28;100.00
75298;BME280;63896;45.990;18.688;2023-07-31T01:36:22;100494.13;;;18.28;100.00
75298;BME280;63896;45.990;18.688;2023-07-31T01:39:26;100496.53;;;18.25;100.00
75298;BME280;63896;45.990;18.688;2023-07-31T01:42:29;100486.31;;;18.17;100.00
75298;BME280;63896;45.990;18.688;2023-07-31T01:45:31;100486.56;;;18.15;100.00
75298;BME280;63896;45.990;18.688;2023-07-31T01:48:34;100479.78;;;18.07;100.00
75298;BME280;63896;45.990;18.688;2023-07-31T01:51:39;100474.44;;;18.07;100.00
75298;BME280;63896;45.990;18.688;2023-07-31T01:54:42;100475.81;;;18.10;100.00
75298;BME280;63896;45.990;18.688;2023-07-31T01:57:45;100468.56;;;18.11;100.00
75298;BME280;63896;45.990;18.688;2023-07-31T02:00:48;100463.44;;;18.09;100.00
75298;BME280;63896;45.990;18.688;2023-07-31T02:03:51;100470.19;;;18.17;100.00
75298;BME280;63896;45.990;18.688;2023-07-31T02:06:56;100474.50;;;18.18;100.00
75298;BME280;63896;45.990;18.688;2023-07-31T02:09:59;100479.38;;;18.31;100.00
75298;BME280;63896;45.990;18.688;2023-07-31T02:13:02;100482.88;;;18.26;100.00
75298;BME280;63896;45.990;18.688;2023-07-31T02:16:06;100484.75;;;18.26;100.00
75298;BME280;63896;45.990;18.688;2023-07-31T02:19:09;100488.47;;;18.20;100.00
75298;BME280;63896;45.990;18.688;2023-07-31T02:22:12;100487.34;;;18.11;100.00
75298;BME280;63896;45.990;18.688;2023-07-31T02:25:15;100494.56;;;18.05;100.00
75298;BME280;63896;45.990;18.688;2023-07-31T02:28:18;100496.16;;;18.01;100.00
75298;BME280;63896;45.990;18.688;2023-07-31T02:31:20;100492.94;;;18.04;100.00
75298;BME280;63896;45.990;18.688;2023-07-31T02:34:24;100498.59;;;18.02;100.00
75298;BME280;63896;45.990;18.688;2023-07-31T02:37:28;100495.94;;;18.13;100.00
75298;BME280;63896;45.990;18.688;2023-07-31T02:40:31;100493.53;;;18.11;100.00
75298;BME280;63896;45.990;18.688;2023-07-31T02:43:34;100494.31;;;18.06;100.00
75298;BME280;63896;45.990;18.688;2023-07-31T02:46:37;100509.31;;;18.02;100.00
75298;BME280;63896;45.990;18.688;2023-07-31T02:49:40;100514.66;;;17.97;100.00
75298;BME280;63896;45.990;18.688;2023-07-31T02:52:43;100521.91;;;17.97;100.00
75298;BME280;63896;45.990;18.688;2023-07-31T02:55:46;100520.88;;;18.03;100.00
75298;BME280;63896;45.990;18.688;2023-07-31T02:58:49;100531.63;;;18.08;100.00
75298;BME280;63896;45.990;18.688;2023-07-31T03:01:51;100535.41;;;18.07;100.00
75298;BME280;63896;45.990;18.688;2023-07-31T03:04:54;100529.84;;;18.19;100.00
75298;BME280;63896;45.990;18.688;2023-07-31T03:07:57;100537.38;;;18.22;100.00
75298;BME280;63896;45.990;18.688;2023-07-31T03:11:00;100543.47;;;18.12;100.00
75298;BME280;63896;45.990;18.688;2023-07-31T03:14:03;100547.16;;;18.01;100.00
75298;BME280;63896;45.990;18.688;2023-07-31T03:17:07;100552.25;;;17.97;100.00
75298;BME280;63896;45.990;18.688;2023-07-31T03:20:10;100547.69;;;17.98;100.00
75298;BME280;63896;45.990;18.688;2023-07-31T03:23:13;100549.59;;;18.02;100.00
75298;BME280;63896;45.990;18.688;2023-07-31T03:26:16;100547.44;;;18.04;100.00
75298;BME280;63896;45.990;18.688;2023-07-31T03:29:19;100549.31;;;17.99;100.00
75298;BME280;63896;45.990;18.688;2023-07-31T03:32:26;100550.13;;;18.04;100.00
75298;BME280;63896;45.990;18.688;2023-07-31T03:35:29;100550.94;;;18.05;100.00
75298;BME280;63896;45.990;18.688;2023-07-31T03:38:32;100551.56;;;18.17;100.00
75298;BME280;63896;45.990;18.688;2023-07-31T03:41:35;100559.13;;;18.25;100.00
75298;BME280;63896;45.990;18.688;2023-07-31T03:44:37;100558.38;;;18.35;100.00
75298;BME280;63896;45.990;18.688;2023-07-31T03:47:40;100572.22;;;18.53;100.00
75298;BME280;63896;45.990;18.688;2023-07-31T03:50:43;100576.81;;;18.63;100.00
75298;BME280;63896;45.990;18.688;2023-07-31T03:53:46;100577.69;;;18.79;100.00
75298;BME280;63896;45.990;18.688;2023-07-31T03:56:49;100572.88;;;18.91;100.00
75298;BME280;63896;45.990;18.688;2023-07-31T03:59:52;100577.50;;;19.06;100.00
75298;BME280;63896;45.990;18.688;2023-07-31T04:02:55;100574.31;;;19.19;100.00
75298;BME280;63896;45.990;18.688;2023-07-31T04:05:57;100582.69;;;19.37;100.00
75298;BME280;63896;45.990;18.688;2023-07-31T04:09:02;100569.78;;;19.55;98.28
75298;BME280;63896;45.990;18.688;2023-07-31T04:12:05;100565.22;;;19.70;96.55
75298;BME280;63896;45.990;18.688;2023-07-31T04:15:09;100571.66;;;19.94;95.67
75298;BME280;63896;45.990;18.688;2023-07-31T04:18:12;100568.94;;;20.05;96.26
75298;BME280;63896;45.990;18.688;2023-07-31T04:21:15;100565.75;;;20.08;94.48
75298;BME280;63896;45.990;18.688;2023-07-31T04:24:17;100578.91;;;20.14;94.90
75298;BME280;63896;45.990;18.688;2023-07-31T04:27:26;100570.00;;;20.29;94.15
75298;BME280;63896;45.990;18.688;2023-07-31T04:30:29;100565.97;;;20.31;93.60
75298;BME280;63896;45.990;18.688;2023-07-31T04:33:32;100565.97;;;20.31;93.02
75298;BME280;63896;45.990;18.688;2023-07-31T04:36:35;100554.84;;;20.53;92.39
75298;BME280;63896;45.990;18.688;2023-07-31T04:39:39;100567.63;;;20.86;90.88
75298;BME280;63896;45.990;18.688;2023-07-31T04:42:42;100564.94;;;21.35;87.60
75298;BME280;63896;45.990;18.688;2023-07-31T04:45:46;100561.00;;;21.57;85.55
75298;BME280;63896;45.990;18.688;2023-07-31T04:48:53;100560.19;;;21.56;85.23
75298;BME280;63896;45.990;18.688;2023-07-31T04:51:55;100561.22;;;21.94;84.16
75298;BME280;63896;45.990;18.688;2023-07-31T04:54:58;100558.75;;;22.26;83.18
75298;BME280;63896;45.990;18.688;2023-07-31T04:58:01;100554.16;;;22.51;80.86
75298;BME280;63896;45.990;18.688;2023-07-31T05:01:05;100567.16;;;22.72;78.70
75298;BME280;63896;45.990;18.688;2023-07-31T05:04:08;100568.94;;;23.01;78.10
75298;BME280;63896;45.990;18.688;2023-07-31T05:07:10;100565.31;;;22.68;78.25
75298;BME280;63896;45.990;18.688;2023-07-31T05:10:13;100565.56;;;22.90;78.40
75298;BME280;63896;45.990;18.688;2023-07-31T05:13:16;100561.91;;;23.37;75.80
75298;BME280;63896;45.990;18.688;2023-07-31T05:16:19;100574.00;;;23.45;74.95
75298;BME280;63896;45.990;18.688;2023-07-31T05:19:22;100563.38;;;23.81;73.03
75298;BME280;63896;45.990;18.688;2023-07-31T05:22:25;100563.31;;;23.86;71.10
75298;BME280;63896;45.990;18.688;2023-07-31T05:25:27;100572.81;;;23.83;72.76
75298;BME280;63896;45.990;18.688;2023-07-31T05:28:30;100572.81;;;24.15;69.44
75298;BME280;63896;45.990;18.688;2023-07-31T05:31:33;100576.53;;;23.87;69.14
75298;BME280;63896;45.990;18.688;2023-07-31T05:34:36;100585.34;;;23.47;70.95
75298;BME280;63896;45.990;18.688;2023-07-31T05:37:39;100591.91;;;23.22;71.49
75298;BME280;63896;45.990;18.688;2023-07-31T05:40:42;100589.78;;;23.00;73.75
75298;BME280;63896;45.990;18.688;2023-07-31T05:43:45;100594.53;;;22.90;72.96
75298;BME280;63896;45.990;18.688;2023-07-31T05:46:48;100591.59;;;22.86;73.50
75298;BME280;63896;45.990;18.688;2023-07-31T05:49:51;100608.31;;;22.69;72.91
75298;BME280;63896;45.990;18.688;2023-07-31T05:52:55;100611.75;;;22.75;72.42
75298;BME280;63896;45.990;18.688;2023-07-31T05:55:58;100605.06;;;22.91;73.25
75298;BME280;63896;45.990;18.688;2023-07-31T05:59:00;100613.34;;;23.18;71.78
75298;BME280;63896;45.990;18.688;2023-07-31T06:02:04;100608.97;;;23.41;72.06
75298;BME280;63896;45.990;18.688;2023-07-31T06:05:08;100611.59;;;23.27;71.21
75298;BME280;63896;45.990;18.688;2023-07-31T06:08:14;100609.94;;;23.50;68.85
75298;BME280;63896;45.990;18.688;2023-07-31T06:11:17;100626.53;;;23.81;67.99
75298;BME280;63896;45.990;18.688;2023-07-31T06:14:19;100615.44;;;24.10;68.52
75298;BME280;63896;45.990;18.688;2023-07-31T06:17:25;100623.13;;;24.22;64.91
75298;BME280;63896;45.990;18.688;2023-07-31T06:20:29;100618.06;;;24.47;62.73
75298;BME280;63896;45.990;18.688;2023-07-31T06:23:31;100624.09;;;24.58;62.04
75298;BME280;63896;45.990;18.688;2023-07-31T06:26:36;100617.38;;;23.77;63.72
75298;BME280;63896;45.990;18.688;2023-07-31T06:29:39;100608.88;;;24.16;63.55
75298;BME280;63896;45.990;18.688;2023-07-31T06:32:42;100605.78;;;24.36;63.39
75298;BME280;63896;45.990;18.688;2023-07-31T06:35:46;100614.03;;;24.58;60.89
75298;BME280;63896;45.990;18.688;2023-07-31T06:38:52;100612.31;;;25.03;60.36
75298;BME280;63896;45.990;18.688;2023-07-31T06:41:55;100606.16;;;24.30;59.48
75298;BME280;63896;45.990;18.688;2023-07-31T06:44:58;100613.34;;;25.30;58.06
75298;BME280;63896;45.990;18.688;2023-07-31T06:48:03;100619.56;;;25.44;56.79
75298;BME280;63896;45.990;18.688;2023-07-31T06:51:06;100610.06;;;25.19;56.70
75298;BME280;63896;45.990;18.688;2023-07-31T06:54:09;100606.88;;;25.17;55.22
75298;BME280;63896;45.990;18.688;2023-07-31T06:57:12;100608.47;;;25.54;56.49
75298;BME280;63896;45.990;18.688;2023-07-31T07:00:16;100604.41;;;25.87;54.72
75298;BME280;63896;45.990;18.688;2023-07-31T07:03:21;100605.09;;;25.71;53.98
75298;BME280;63896;45.990;18.688;2023-07-31T07:06:24;100600.69;;;25.83;52.67
75298;BME280;63896;45.990;18.688;2023-07-31T07:09:27;100613.81;;;26.12;52.83
75298;BME280;63896;45.990;18.688;2023-07-31T07:12:30;100618.66;;;25.93;55.43
75298;BME280;63896;45.990;18.688;2023-07-31T07:15:34;100617.59;;;26.73;53.80
75298;BME280;63896;45.990;18.688;2023-07-31T07:18:36;100614.38;;;27.36;50.04
75298;BME280;63896;45.990;18.688;2023-07-31T07:21:48;100621.69;;;26.53;51.22
75298;BME280;63896;45.990;18.688;2023-07-31T07:25:01;100633.75;;;28.58;48.47
75298;BME280;63896;45.990;18.688;2023-07-31T07:29:06;100622.19;;;30.39;41.48
75298;BME280;63896;45.990;18.688;2023-07-31T07:32:13;100636.38;;;30.65;40.27
75298;BME280;63896;45.990;18.688;2023-07-31T07:35:23;100628.44;;;30.27;41.57
75298;BME280;63896;45.990;18.688;2023-07-31T07:38:28;100622.19;;;30.63;39.71
75298;BME280;63896;45.990;18.688;2023-07-31T07:41:30;100616.44;;;30.32;39.29
75298;BME280;63896;45.990;18.688;2023-07-31T07:44:33;100621.41;;;30.75;39.27
75298;BME280;63896;45.990;18.688;2023-07-31T07:47:38;100618.78;;;31.55;39.39
75298;BME280;63896;45.990;18.688;2023-07-31T07:50:41;100618.84;;;31.86;38.06
75298;BME280;63896;45.990;18.688;2023-07-31T07:53:44;100620.78;;;31.70;37.08
75298;BME280;63896;45.990;18.688;2023-07-31T07:56:47;100613.63;;;32.91;35.29
75298;BME280;63896;45.990;18.688;2023-07-31T07:59:50;100607.25;;;32.87;34.09
75298;BME280;63896;45.990;18.688;2023-07-31T08:02:53;100613.94;;;33.21;35.08
75298;BME280;63896;45.990;18.688;2023-07-31T08:05:59;100610.94;;;32.13;34.43
75298;BME280;63896;45.990;18.688;2023-07-31T08:09:05;100612.97;;;31.04;35.87
75298;BME280;63896;45.990;18.688;2023-07-31T08:12:09;100615.03;;;32.34;33.12
75298;BME280;63896;45.990;18.688;2023-07-31T08:15:12;100624.25;;;32.73;32.82
75298;BME280;63896;45.990;18.688;2023-07-31T08:18:15;100620.97;;;33.37;32.48
75298;BME280;63896;45.990;18.688;2023-07-31T08:21:21;100612.69;;;33.57;31.52
75298;BME280;63896;45.990;18.688;2023-07-31T08:24:24;100615.97;;;34.23;32.55
75298;BME280;63896;45.990;18.688;2023-07-31T08:27:27;100617.09;;;34.45;30.54
75298;BME280;63896;45.990;18.688;2023-07-31T08:30:30;100620.28;;;34.47;31.08
75298;BME280;63896;45.990;18.688;2023-07-31T08:33:33;100618.09;;;34.33;29.88
75298;BME280;63896;45.990;18.688;2023-07-31T08:36:36;100617.19;;;34.07;31.81
75298;BME280;63896;45.990;18.688;2023-07-31T08:39:39;100614.34;;;34.68;29.98
75298;BME280;63896;45.990;18.688;2023-07-31T08:42:46;100615.84;;;33.36;29.39
75298;BME280;63896;45.990;18.688;2023-07-31T08:45:50;100620.38;;;34.28;30.73
75298;BME280;63896;45.990;18.688;2023-07-31T08:48:54;100616.09;;;34.79;28.36
75298;BME280;63896;45.990;18.688;2023-07-31T08:51:58;100634.44;;;35.54;27.73
75298;BME280;63896;45.990;18.688;2023-07-31T08:55:01;100633.50;;;35.73;26.19
75298;BME280;63896;45.990;18.688;2023-07-31T08:58:05;100634.19;;;36.00;27.80
75298;BME280;63896;45.990;18.688;2023-07-31T09:01:11;100626.97;;;36.25;26.39
75298;BME280;63896;45.990;18.688;2023-07-31T09:04:16;100625.06;;;36.84;26.05
75298;BME280;63896;45.990;18.688;2023-07-31T09:07:20;100624.22;;;36.76;26.46
75298;BME280;63896;45.990;18.688;2023-07-31T09:10:24;100612.41;;;36.83;25.42
75298;BME280;63896;45.990;18.688;2023-07-31T09:13:28;100623.31;;;36.61;25.21
75298;BME280;63896;45.990;18.688;2023-07-31T09:16:32;100617.38;;;37.25;25.07
75298;BME280;63896;45.990;18.688;2023-07-31T09:19:36;100618.50;;;37.09;24.96
75298;BME280;63896;45.990;18.688;2023-07-31T09:22:43;100611.38;;;36.54;25.09
75298;BME280;63896;45.990;18.688;2023-07-31T09:25:47;100616.59;;;36.62;24.85
75298;BME280;63896;45.990;18.688;2023-07-31T09:28:53;100611.59;;;36.82;24.53
75298;BME280;63896;45.990;18.688;2023-07-31T09:31:55;100608.84;;;36.86;24.00
75298;BME280;63896;45.990;18.688;2023-07-31T09:34:59;100602.00;;;35.44;25.33
75298;BME280;63896;45.990;18.688;2023-07-31T09:38:12;100601.38;;;36.90;24.87
75298;BME280;63896;45.990;18.688;2023-07-31T09:41:15;100611.47;;;36.61;24.40
75298;BME280;63896;45.990;18.688;2023-07-31T09:44:18;100596.19;;;37.67;22.56
75298;BME280;63896;45.990;18.688;2023-07-31T09:47:24;100596.44;;;36.62;24.08
75298;BME280;63896;45.990;18.688;2023-07-31T09:50:27;100591.19;;;36.50;25.13
75298;BME280;63896;45.990;18.688;2023-07-31T09:53:30;100592.78;;;36.51;25.31
75298;BME280;63896;45.990;18.688;2023-07-31T09:56:33;100585.91;;;37.57;23.65
75298;BME280;63896;45.990;18.688;2023-07-31T09:59:37;100592.16;;;35.80;25.37
75298;BME280;63896;45.990;18.688;2023-07-31T10:02:41;100588.22;;;36.18;25.35
75298;BME280;63896;45.990;18.688;2023-07-31T10:05:47;100591.88;;;37.91;22.35
75298;BME280;63896;45.990;18.688;2023-07-31T10:08:52;100597.09;;;38.42;22.39
75298;BME280;63896;45.990;18.688;2023-07-31T10:12:00;100587.88;;;37.67;22.37
75298;BME280;63896;45.990;18.688;2023-07-31T10:15:04;100587.94;;;38.59;21.80
75298;BME280;63896;45.990;18.688;2023-07-31T10:18:07;100581.00;;;37.26;22.93
75298;BME280;63896;45.990;18.688;2023-07-31T10:21:10;100577.22;;;36.80;23.88
75298;BME280;63896;45.990;18.688;2023-07-31T10:24:14;100578.88;;;36.98;24.14
75298;BME280;63896;45.990;18.688;2023-07-31T10:27:18;100568.13;;;37.76;22.92
75298;BME280;63896;45.990;18.688;2023-07-31T10:30:25;100570.50;;;38.55;22.04
75298;BME280;63896;45.990;18.688;2023-07-31T10:33:28;100565.56;;;39.23;21.28
75298;BME280;63896;45.990;18.688;2023-07-31T10:36:32;100561.47;;;40.08;20.34
75298;BME280;63896;45.990;18.688;2023-07-31T10:39:37;100559.19;;;39.95;20.78
75298;BME280;63896;45.990;18.688;2023-07-31T10:42:52;100547.84;;;39.69;20.72
75298;BME280;63896;45.990;18.688;2023-07-31T10:45:55;100548.06;;;40.40;20.34
75298;BME280;63896;45.990;18.688;2023-07-31T10:49:00;100547.31;;;40.36;20.55
75298;BME280;63896;45.990;18.688;2023-07-31T10:52:03;100538.44;;;39.52;20.81
75298;BME280;63896;45.990;18.688;2023-07-31T10:55:24;100533.31;;;39.50;20.47
75298;BME280;63896;45.990;18.688;2023-07-31T10:58:28;100533.97;;;38.96;21.63
75298;BME280;63896;45.990;18.688;2023-07-31T11:01:53;100528.41;;;39.72;20.50
75298;BME280;63896;45.990;18.688;2023-07-31T11:05:09;100525.56;;;39.10;21.29
75298;BME280;63896;45.990;18.688;2023-07-31T11:11:19;100528.84;;;39.60;20.54
75298;BME280;63896;45.990;18.688;2023-07-31T11:14:23;100531.78;;;40.42;20.04
75298;BME280;63896;45.990;18.688;2023-07-31T11:17:26;100527.09;;;40.35;19.48
75298;BME280;63896;45.990;18.688;2023-07-31T11:20:32;100533.50;;;39.81;20.05
75298;BME280;63896;45.990;18.688;2023-07-31T11:23:37;100519.09;;;39.38;20.86
75298;BME280;63896;45.990;18.688;2023-07-31T11:26:51;100515.69;;;40.23;19.75
75298;BME280;63896;45.990;18.688;2023-07-31T11:30:00;100513.09;;;37.57;22.69
75298;BME280;63896;45.990;18.688;2023-07-31T11:33:05;100510.72;;;38.30;21.47
75298;BME280;63896;45.990;18.688;2023-07-31T11:36:16;100514.28;;;39.45;20.18
75298;BME280;63896;45.990;18.688;2023-07-31T11:39:19;100501.34;;;39.14;20.72
75298;BME280;63896;45.990;18.688;2023-07-31T11:42:22;100509.63;;;39.87;20.19
75298;BME280;63896;45.990;18.688;2023-07-31T11:45:26;100504.31;;;40.44;20.17
75298;BME280;63896;45.990;18.688;2023-07-31T11:48:33;100490.25;;;40.62;19.16
75298;BME280;63896;45.990;18.688;2023-07-31T11:51:37;100499.09;;;39.61;20.30
75298;BME280;63896;45.990;18.688;2023-07-31T11:54:40;100495.22;;;39.44;20.56
75298;BME280;63896;45.990;18.688;2023-07-31T11:57:45;100497.31;;;39.88;19.88
75298;BME280;63896;45.990;18.688;2023-07-31T12:00:49;100489.59;;;39.58;20.79
75298;BME280;63896;45.990;18.688;2023-07-31T12:03:52;100482.78;;;40.11;19.97
75298;BME280;63896;45.990;18.688;2023-07-31T12:06:55;100473.56;;;39.80;20.54
75298;BME280;63896;45.990;18.688;2023-07-31T12:10:00;100483.91;;;40.61;19.30
75298;BME280;63896;45.990;18.688;2023-07-31T12:13:05;100470.91;;;40.81;19.67
75298;BME280;63896;45.990;18.688;2023-07-31T12:16:08;100466.53;;;39.61;19.99
75298;BME280;63896;45.990;18.688;2023-07-31T12:19:10;100470.69;;;40.69;19.47
75298;BME280;63896;45.990;18.688;2023-07-31T12:22:14;100462.97;;;38.98;20.52
75298;BME280;63896;45.990;18.688;2023-07-31T12:25:17;100467.03;;;40.01;20.08
75298;BME280;63896;45.990;18.688;2023-07-31T12:28:22;100454.72;;;40.39;19.43
75298;BME280;63896;45.990;18.688;2023-07-31T12:31:28;100455.28;;;40.61;19.07
75298;BME280;63896;45.990;18.688;2023-07-31T12:34:42;100458.75;;;39.90;18.92
75298;BME280;63896;45.990;18.688;2023-07-31T12:37:46;100449.50;;;40.04;18.99
75298;BME280;63896;45.990;18.688;2023-07-31T12:40:48;100443.28;;;39.41;19.79
75298;BME280;63896;45.990;18.688;2023-07-31T12:43:51;100448.56;;;39.18;19.67
75298;BME280;63896;45.990;18.688;2023-07-31T12:46:54;100441.97;;;39.56;20.81
75298;BME280;63896;45.990;18.688;2023-07-31T12:49:57;100429.13;;;39.18;19.93
75298;BME280;63896;45.990;18.688;2023-07-31T12:52:59;100419.41;;;39.95;20.02
75298;BME280;63896;45.990;18.688;2023-07-31T12:56:02;100418.28;;;40.90;18.65
75298;BME280;63896;45.990;18.688;2023-07-31T12:59:05;100414.59;;;39.99;19.85
75298;BME280;63896;45.990;18.688;2023-07-31T13:02:08;100416.00;;;39.29;20.44
75298;BME280;63896;45.990;18.688;2023-07-31T13:05:11;100402.84;;;38.67;20.09
75298;BME280;63896;45.990;18.688;2023-07-31T13:08:15;100402.81;;;38.74;20.80
75298;BME280;63896;45.990;18.688;2023-07-31T13:11:20;100402.31;;;38.93;21.17
75298;BME280;63896;45.990;18.688;2023-07-31T13:14:23;100402.44;;;36.53;22.51
75298;BME280;63896;45.990;18.688;2023-07-31T13:17:26;100410.88;;;36.95;22.50
75298;BME280;63896;45.990;18.688;2023-07-31T13:20:29;100404.78;;;36.54;23.06
75298;BME280;63896;45.990;18.688;2023-07-31T13:23:32;100404.53;;;35.57;24.39
75298;BME280;63896;45.990;18.688;2023-07-31T13:26:35;100398.28;;;37.08;22.69
75298;BME280;63896;45.990;18.688;2023-07-31T13:29:38;100395.44;;;36.84;22.97
75298;BME280;63896;45.990;18.688;2023-07-31T13:32:41;100373.38;;;37.83;21.25
75298;BME280;63896;45.990;18.688;2023-07-31T13:35:44;100376.78;;;38.54;21.33
75298;BME280;63896;45.990;18.688;2023-07-31T13:38:47;100374.81;;;38.37;21.76
75298;BME280;63896;45.990;18.688;2023-07-31T13:41:50;100380.47;;;37.02;23.24
75298;BME280;63896;45.990;18.688;2023-07-31T13:44:53;100378.22;;;34.86;25.99
75298;BME280;63896;45.990;18.688;2023-07-31T13:47:55;100379.19;;;34.64;26.03
75298;BME280;63896;45.990;18.688;2023-07-31T13:50:58;100368.88;;;33.75;26.53
75298;BME280;63896;45.990;18.688;2023-07-31T13:54:01;100378.97;;;33.67;27.19
75298;BME280;63896;45.990;18.688;2023-07-31T13:57:04;100373.25;;;33.11;27.52
75298;BME280;63896;45.990;18.688;2023-07-31T14:00:08;100370.06;;;32.67;28.37
75298;BME280;63896;45.990;18.688;2023-07-31T14:03:11;100370.69;;;32.41;29.63
75298;BME280;63896;45.990;18.688;2023-07-31T14:06:14;100363.91;;;32.74;29.48
75298;BME280;63896;45.990;18.688;2023-07-31T14:09:17;100368.78;;;32.61;29.27
75298;BME280;63896;45.990;18.688;2023-07-31T14:12:20;100365.56;;;32.21;30.13
75298;BME280;63896;45.990;18.688;2023-07-31T14:15:43;100358.56;;;31.73;31.04
75298;BME280;63896;45.990;18.688;2023-07-31T14:18:46;100346.25;;;31.04;31.28
75298;BME280;63896;45.990;18.688;2023-07-31T14:21:49;100343.94;;;31.84;30.79
75298;BME280;63896;45.990;18.688;2023-07-31T14:25:11;100343.22;;;32.22;30.79
75298;BME280;63896;45.990;18.688;2023-07-31T14:28:14;100339.69;;;32.06;30.28
75298;BME280;63896;45.990;18.688;2023-07-31T14:31:17;100337.00;;;31.90;30.85
75298;BME280;63896;45.990;18.688;2023-07-31T14:34:20;100332.09;;;31.99;30.60
75298;BME280;63896;45.990;18.688;2023-07-31T14:37:25;100333.50;;;31.74;30.70
75298;BME280;63896;45.990;18.688;2023-07-31T14:40:29;100333.81;;;31.53;30.81
75298;BME280;63896;45.990;18.688;2023-07-31T14:43:32;100327.53;;;31.53;31.74
75298;BME280;63896;45.990;18.688;2023-07-31T14:46:34;100329.09;;;31.07;32.13
75298;BME280;63896;45.990;18.688;2023-07-31T14:49:37;100323.88;;;31.02;33.32
75298;BME280;63896;45.990;18.688;2023-07-31T14:52:40;100324.75;;;31.06;32.57
75298;BME280;63896;45.990;18.688;2023-07-31T14:55:43;100318.97;;;30.80;31.97
75298;BME280;63896;45.990;18.688;2023-07-31T14:58:46;100326.63;;;30.74;33.21
75298;BME280;63896;45.990;18.688;2023-07-31T15:01:48;100322.22;;;30.69;33.41
75298;BME280;63896;45.990;18.688;2023-07-31T15:04:51;100325.09;;;30.61;34.06
75298;BME280;63896;45.990;18.688;2023-07-31T15:07:54;100321.03;;;30.70;32.91
75298;BME280;63896;45.990;18.688;2023-07-31T15:10:57;100319.25;;;30.47;33.29
75298;BME280;63896;45.990;18.688;2023-07-31T15:14:00;100322.00;;;30.35;33.79
75298;BME280;63896;45.990;18.688;2023-07-31T15:17:03;100314.16;;;30.21;33.54
75298;BME280;63896;45.990;18.688;2023-07-31T15:20:06;100311.91;;;30.11;34.28
75298;BME280;63896;45.990;18.688;2023-07-31T15:23:09;100318.00;;;29.92;34.30
75298;BME280;63896;45.990;18.688;2023-07-31T15:26:12;100312.75;;;29.87;34.88
75298;BME280;63896;45.990;18.688;2023-07-31T15:29:15;100310.81;;;29.51;35.79
75298;BME280;63896;45.990;18.688;2023-07-31T15:32:22;100309.31;;;29.17;36.11
75298;BME280;63896;45.990;18.688;2023-07-31T15:35:26;100310.13;;;29.18;35.45
75298;BME280;63896;45.990;18.688;2023-07-31T15:38:29;100310.81;;;29.15;36.17
75298;BME280;63896;45.990;18.688;2023-07-31T15:41:31;100303.56;;;29.31;35.64
75298;BME280;63896;45.990;18.688;2023-07-31T15:44:34;100303.72;;;29.02;36.51
75298;BME280;63896;45.990;18.688;2023-07-31T15:47:37;100299.38;;;28.89;36.94
75298;BME280;63896;45.990;18.688;2023-07-31T15:50:41;100306.78;;;28.88;36.97
75298;BME280;63896;45.990;18.688;2023-07-31T15:53:44;100301.19;;;28.84;36.83
75298;BME280;63896;45.990;18.688;2023-07-31T15:56:47;100303.22;;;28.75;37.37
75298;BME280;63896;45.990;18.688;2023-07-31T15:59:50;100299.28;;;28.64;37.25
75298;BME280;63896;45.990;18.688;2023-07-31T16:02:53;100295.19;;;28.37;38.30